sensor_id;sensor_type;location;lat;lon;timestamp;pressure;altitude;pressure_sealevel;temperature;humidity
27685;BME280;46113;50.130;8.526;2022-07-23T04:17:41;100056.00;;;19.68;51.33
27685;BME280;46113;50.130;8.526;2022-07-23T04:20:08;100049.31;;;19.63;51.54
27685;BME280;46113;50.130;8.526;2022-07-23T04:22:46;100066.75;;;19.36;52.43
27685;BME280;46113;50.130;8.526;2022-07-23T04:25:13;100075.69;;;19.13;52.91
27685;BME280;46113;50.130;8.526;2022-07-23T04:27:43;100077.00;;;19.30;52.70
27685;BME280;46113;50.130;8.526;2022-07-23T04:30:11;100074.44;;;19.29;52.80
27685;BME280;46113;50.130;8.526;2022-07-23T04:32:38;100083.47;;;19.28;52.80
27685;BME280;46113;50.130;8.526;2022-07-23T04:35:12;100085.13;;;19.40;52.34
27685;BME280;46113;50.130;8.526;2022-07-23T04:37:39;100097.22;;;19.67;51.64
27685;BME280;46113;50.130;8.526;2022-07-23T04:40:06;100090.06;;;19.56;51.95
27685;BME280;46113;50.130;8.526;2022-07-23T04:42:34;100100.19;;;19.53;51.72
27685;BME280;46113;50.130;8.526;2022-07-23T04:45:01;100103.09;;;19.61;51.48
27685;BME280;46113;50.130;8.526;2022-07-23T04:47:27;100102.78;;;19.76;51.04
27685;BME280;46113;50.130;8.526;2022-07-23T04:49:57;100117.56;;;19.70;50.98
27685;BME280;46113;50.130;8.526;2022-07-23T04:52:24;100119.63;;;19.89;50.54
27685;BME280;46113;50.130;8.526;2022-07-23T04:54:51;100122.28;;;19.78;50.53
27685;BME280;46113;50.130;8.526;2022-07-23T04:57:17;100128.00;;;19.52;50.54
27685;BME280;46113;50.130;8.526;2022-07-23T04:59:44;100127.91;;;19.86;49.94
27685;BME280;46113;50.130;8.526;2022-07-23T05:02:12;100136.22;;;19.83;49.53
27685;BME280;46113;50.130;8.526;2022-07-23T05:04:39;100135.25;;;20.05;48.84
27685;BME280;46113;50.130;8.526;2022-07-23T05:07:05;100133.75;;;19.91;48.85
27685;BME280;46113;50.130;8.526;2022-07-23T05:09:33;100130.22;;;20.12;48.52
27685;BME280;46113;50.130;8.526;2022-07-23T05:12:00;100131.66;;;19.95;48.50
27685;BME280;46113;50.130;8.526;2022-07-23T05:14:29;100126.81;;;19.89;48.56
27685;BME280;46113;50.130;8.526;2022-07-23T05:16:56;100133.63;;;19.49;49.05
27685;BME280;46113;50.130;8.526;2022-07-23T05:19:24;100131.84;;;19.70;48.72
27685;BME280;46113;50.130;8.526;2022-07-23T05:21:52;100133.50;;;19.94;48.42
27685;BME280;46113;50.130;8.526;2022-07-23T05:24:19;100132.28;;;19.87;47.97
27685;BME280;46113;50.130;8.526;2022-07-23T05:26:46;100141.13;;;19.66;48.42
27685;BME280;46113;50.130;8.526;2022-07-23T05:29:12;100142.47;;;19.72;48.22
27685;BME280;46113;50.130;8.526;2022-07-23T05:31:39;100140.75;;;19.82;48.00
27685;BME280;46113;50.130;8.526;2022-07-23T05:34:06;100136.03;;;19.96;47.55
27685;BME280;46113;50.130;8.526;2022-07-23T05:36:34;100150.34;;;20.18;47.33
27685;BME280;46113;50.130;8.526;2022-07-23T05:39:02;100160.78;;;20.32;46.95
27685;BME280;46113;50.130;8.526;2022-07-23T05:41:33;100168.94;;;20.31;47.04
27685;BME280;46113;50.130;8.526;2022-07-23T05:44:01;100166.97;;;20.33;46.76
27685;BME280;46113;50.130;8.526;2022-07-23T05:46:29;100159.50;;;20.15;46.92
27685;BME280;46113;50.130;8.526;2022-07-23T05:49:01;100165.69;;;20.27;46.51
27685;BME280;46113;50.130;8.526;2022-07-23T05:52:07;100167.63;;;20.04;46.96
27685;BME280;46113;50.130;8.526;2022-07-23T05:54:54;100174.25;;;19.88;46.90
27685;BME280;46113;50.130;8.526;2022-07-23T05:57:21;100167.44;;;19.72;46.15
27685;BME280;46113;50.130;8.526;2022-07-23T05:59:51;100165.50;;;19.86;45.79
27685;BME280;46113;50.130;8.526;2022-07-23T06:02:17;100170.31;;;20.04;45.48
27685;BME280;46113;50.130;8.526;2022-07-23T06:04:44;100164.88;;;20.15;45.40
27685;BME280;46113;50.130;8.526;2022-07-23T06:07:35;100166.38;;;20.08;45.52
27685;BME280;46113;50.130;8.526;2022-07-23T06:10:03;100167.69;;;19.81;45.72
27685;BME280;46113;50.130;8.526;2022-07-23T06:12:30;100175.53;;;20.05;45.24
27685;BME280;46113;50.130;8.526;2022-07-23T06:14:56;100178.38;;;20.04;45.27
27685;BME280;46113;50.130;8.526;2022-07-23T06:17:23;100170.56;;;20.01;45.20
27685;BME280;46113;50.130;8.526;2022-07-23T06:19:52;100178.34;;;19.71;45.25
27685;BME280;46113;50.130;8.526;2022-07-23T06:22:19;100172.88;;;19.50;45.15
27685;BME280;46113;50.130;8.526;2022-07-23T06:24:46;100178.34;;;19.71;44.79
27685;BME280;46113;50.130;8.526;2022-07-23T06:27:12;100185.16;;;19.87;44.24
27685;BME280;46113;50.130;8.526;2022-07-23T06:29:39;100187.94;;;19.85;44.48
27685;BME280;46113;50.130;8.526;2022-07-23T06:32:07;100189.94;;;20.04;44.04
27685;BME280;46113;50.130;8.526;2022-07-23T06:34:34;100190.75;;;20.16;43.80
27685;BME280;46113;50.130;8.526;2022-07-23T06:37:01;100181.16;;;20.35;43.45
27685;BME280;46113;50.130;8.526;2022-07-23T06:39:27;100180.16;;;20.36;43.74
27685;BME280;46113;50.130;8.526;2022-07-23T06:41:56;100189.88;;;19.94;44.69
27685;BME280;46113;50.130;8.526;2022-07-23T06:44:36;100194.66;;;20.12;44.70
27685;BME280;46113;50.130;8.526;2022-07-23T06:47:04;100183.53;;;20.38;45.04
27685;BME280;46113;50.130;8.526;2022-07-23T06:49:33;100179.63;;;20.42;45.98
27685;BME280;46113;50.130;8.526;2022-07-23T06:51:59;100171.97;;;20.37;46.02
27685;BME280;46113;50.130;8.526;2022-07-23T06:54:26;100176.03;;;20.53;45.38
27685;BME280;46113;50.130;8.526;2022-07-23T06:56:53;100178.22;;;20.59;45.31
27685;BME280;46113;50.130;8.526;2022-07-23T06:59:19;100184.75;;;20.67;46.19
27685;BME280;46113;50.130;8.526;2022-07-23T07:01:46;100186.59;;;20.66;44.81
27685;BME280;46113;50.130;8.526;2022-07-23T07:04:12;100185.16;;;20.62;43.87
27685;BME280;46113;50.130;8.526;2022-07-23T07:06:39;100200.88;;;20.67;44.15
27685;BME280;46113;50.130;8.526;2022-07-23T07:09:05;100188.28;;;20.88;43.92
27685;BME280;46113;50.130;8.526;2022-07-23T07:11:49;100201.06;;;21.06;43.28
27685;BME280;46113;50.130;8.526;2022-07-23T07:14:16;100211.44;;;21.11;43.37
27685;BME280;46113;50.130;8.526;2022-07-23T07:16:42;100216.22;;;21.07;43.18
27685;BME280;46113;50.130;8.526;2022-07-23T07:19:09;100217.19;;;20.96;43.15
27685;BME280;46113;50.130;8.526;2022-07-23T07:21:35;100218.31;;;21.25;42.55
27685;BME280;46113;50.130;8.526;2022-07-23T07:24:02;100223.28;;;21.29;42.68
27685;BME280;46113;50.130;8.526;2022-07-23T07:26:29;100224.34;;;21.48;42.22
27685;BME280;46113;50.130;8.526;2022-07-23T07:28:57;100224.78;;;21.53;41.89
27685;BME280;46113;50.130;8.526;2022-07-23T07:31:24;100218.31;;;21.66;41.78
27685;BME280;46113;50.130;8.526;2022-07-23T07:33:51;100228.06;;;21.77;41.58
27685;BME280;46113;50.130;8.526;2022-07-23T07:36:17;100230.06;;;21.75;41.51
27685;BME280;46113;50.130;8.526;2022-07-23T07:38:44;100231.09;;;21.42;42.16
27685;BME280;46113;50.130;8.526;2022-07-23T07:41:11;100236.94;;;21.48;42.00
27685;BME280;46113;50.130;8.526;2022-07-23T07:43:38;100239.72;;;21.77;41.83
27685;BME280;46113;50.130;8.526;2022-07-23T07:46:05;100238.63;;;22.09;41.25
27685;BME280;46113;50.130;8.526;2022-07-23T07:48:37;100243.88;;;22.11;41.56
27685;BME280;46113;50.130;8.526;2022-07-23T07:51:04;100242.91;;;22.22;41.09
27685;BME280;46113;50.130;8.526;2022-07-23T07:53:31;100250.69;;;22.15;41.46
27685;BME280;46113;50.130;8.526;2022-07-23T07:55:58;100253.94;;;22.29;40.74
27685;BME280;46113;50.130;8.526;2022-07-23T07:58:25;100250.53;;;22.36;40.63
27685;BME280;46113;50.130;8.526;2022-07-23T08:00:51;100252.66;;;22.33;40.99
27685;BME280;46113;50.130;8.526;2022-07-23T08:03:18;100252.25;;;22.28;41.61
27685;BME280;46113;50.130;8.526;2022-07-23T08:05:45;100247.25;;;22.53;40.98
27685;BME280;46113;50.130;8.526;2022-07-23T08:08:11;100261.88;;;22.30;41.40
27685;BME280;46113;50.130;8.526;2022-07-23T08:10:41;100257.22;;;22.62;40.75
27685;BME280;46113;50.130;8.526;2022-07-23T08:13:13;100258.91;;;22.73;41.17
27685;BME280;46113;50.130;8.526;2022-07-23T08:15:40;100262.59;;;22.82;40.74
27685;BME280;46113;50.130;8.526;2022-07-23T08:18:07;100266.69;;;22.76;40.52
27685;BME280;46113;50.130;8.526;2022-07-23T08:20:33;100264.38;;;23.01;40.22
27685;BME280;46113;50.130;8.526;2022-07-23T08:23:03;100256.41;;;22.99;39.96
27685;BME280;46113;50.130;8.526;2022-07-23T08:25:39;100256.94;;;23.13;40.42
27685;BME280;46113;50.130;8.526;2022-07-23T08:28:10;100261.91;;;23.18;40.27
27685;BME280;46113;50.130;8.526;2022-07-23T08:30:39;100268.63;;;23.04;40.04
27685;BME280;46113;50.130;8.526;2022-07-23T08:33:11;100262.22;;;23.14;39.32
27685;BME280;46113;50.130;8.526;2022-07-23T08:36:01;100264.88;;;23.34;40.02
27685;BME280;46113;50.130;8.526;2022-07-23T08:38:34;100261.81;;;23.47;40.14
27685;BME280;46113;50.130;8.526;2022-07-23T08:41:02;100274.16;;;23.02;40.57
27685;BME280;46113;50.130;8.526;2022-07-23T08:43:32;100275.31;;;22.99;40.75
27685;BME280;46113;50.130;8.526;2022-07-23T08:46:02;100274.06;;;22.84;40.98
27685;BME280;46113;50.130;8.526;2022-07-23T08:48:34;100273.09;;;23.23;40.64
27685;BME280;46113;50.130;8.526;2022-07-23T08:51:05;100270.47;;;23.51;42.06
27685;BME280;46113;50.130;8.526;2022-07-23T08:53:34;100267.13;;;23.67;40.17
27685;BME280;46113;50.130;8.526;2022-07-23T08:56:03;100274.28;;;24.04;40.13
27685;BME280;46113;50.130;8.526;2022-07-23T08:59:01;100264.28;;;23.87;39.75
27685;BME280;46113;50.130;8.526;2022-07-23T09:01:43;100271.59;;;24.23;38.88
27685;BME280;46113;50.130;8.526;2022-07-23T09:04:10;100259.06;;;23.29;40.51
27685;BME280;46113;50.130;8.526;2022-07-23T09:06:39;100263.59;;;23.28;40.89
27685;BME280;46113;50.130;8.526;2022-07-23T09:09:19;100271.09;;;23.91;40.41
27685;BME280;46113;50.130;8.526;2022-07-23T09:12:10;100265.56;;;24.29;38.68
27685;BME280;46113;50.130;8.526;2022-07-23T09:14:44;100265.38;;;24.49;37.33
27685;BME280;46113;50.130;8.526;2022-07-23T09:17:16;100259.38;;;24.73;38.11
27685;BME280;46113;50.130;8.526;2022-07-23T09:19:44;100258.72;;;24.79;36.78
27685;BME280;46113;50.130;8.526;2022-07-23T09:22:19;100255.22;;;24.87;36.45
27685;BME280;46113;50.130;8.526;2022-07-23T09:25:08;100253.84;;;24.83;36.86
27685;BME280;46113;50.130;8.526;2022-07-23T09:30:23;100260.13;;;25.45;36.16
27685;BME280;46113;50.130;8.526;2022-07-23T09:33:10;100257.78;;;25.58;35.80
27685;BME280;46113;50.130;8.526;2022-07-23T09:35:51;100262.56;;;25.64;35.48
27685;BME280;46113;50.130;8.526;2022-07-23T09:38:21;100268.91;;;25.90;34.99
27685;BME280;46113;50.130;8.526;2022-07-23T09:41:08;100270.13;;;26.04;35.00
27685;BME280;46113;50.130;8.526;2022-07-23T09:43:35;100260.66;;;26.16;34.04
27685;BME280;46113;50.130;8.526;2022-07-23T09:46:26;100269.63;;;26.09;34.00
27685;BME280;46113;50.130;8.526;2022-07-23T09:49:22;100263.34;;;26.08;33.68
27685;BME280;46113;50.130;8.526;2022-07-23T09:51:57;100270.13;;;26.12;33.78
27685;BME280;46113;50.130;8.526;2022-07-23T09:54:34;100266.06;;;26.08;33.85
27685;BME280;46113;50.130;8.526;2022-07-23T09:57:11;100266.09;;;25.65;34.02
27685;BME280;46113;50.130;8.526;2022-07-23T09:59:43;100269.31;;;25.69;34.63
27685;BME280;46113;50.130;8.526;2022-07-23T10:02:11;100272.28;;;25.84;34.02
27685;BME280;46113;50.130;8.526;2022-07-23T10:05:01;100271.13;;;26.03;33.81
27685;BME280;46113;50.130;8.526;2022-07-23T10:07:51;100263.88;;;26.28;34.33
27685;BME280;46113;50.130;8.526;2022-07-23T10:10:39;100267.81;;;26.67;33.76
27685;BME280;46113;50.130;8.526;2022-07-23T10:13:25;100273.22;;;26.34;34.15
27685;BME280;46113;50.130;8.526;2022-07-23T10:16:03;100266.97;;;26.59;34.55
27685;BME280;46113;50.130;8.526;2022-07-23T10:18:30;100267.31;;;26.89;33.27
27685;BME280;46113;50.130;8.526;2022-07-23T10:20:58;100259.97;;;26.98;32.94
27685;BME280;46113;50.130;8.526;2022-07-23T10:23:41;100259.22;;;27.20;33.00
27685;BME280;46113;50.130;8.526;2022-07-23T10:26:24;100261.25;;;27.27;32.29
27685;BME280;46113;50.130;8.526;2022-07-23T10:34:31;100257.53;;;27.19;32.34
27685;BME280;46113;50.130;8.526;2022-07-23T10:37:13;100251.78;;;27.14;32.71
27685;BME280;46113;50.130;8.526;2022-07-23T10:39:47;100253.75;;;27.29;32.77
27685;BME280;46113;50.130;8.526;2022-07-23T10:42:16;100255.91;;;27.02;33.63
27685;BME280;46113;50.130;8.526;2022-07-23T10:44:45;100253.19;;;27.02;31.82
27685;BME280;46113;50.130;8.526;2022-07-23T10:47:21;100253.38;;;27.48;32.67
27685;BME280;46113;50.130;8.526;2022-07-23T10:50:20;100246.13;;;27.72;31.93
27685;BME280;46113;50.130;8.526;2022-07-23T10:58:05;100242.97;;;28.16;31.13
27685;BME280;46113;50.130;8.526;2022-07-23T11:00:33;100246.44;;;28.48;30.99
27685;BME280;46113;50.130;8.526;2022-07-23T11:03:02;100246.50;;;28.63;30.39
27685;BME280;46113;50.130;8.526;2022-07-23T11:05:44;100247.38;;;28.78;30.34
27685;BME280;46113;50.130;8.526;2022-07-23T11:08:17;100243.38;;;27.32;31.11
27685;BME280;46113;50.130;8.526;2022-07-23T11:10:52;100231.34;;;26.62;31.90
27685;BME280;46113;50.130;8.526;2022-07-23T11:13:37;100235.53;;;27.54;31.59
27685;BME280;46113;50.130;8.526;2022-07-23T11:16:08;100231.41;;;27.90;30.63
27685;BME280;46113;50.130;8.526;2022-07-23T11:32:00;100233.84;;;29.00;29.00
27685;BME280;46113;50.130;8.526;2022-07-23T11:34:42;100228.34;;;29.09;28.87
27685;BME280;46113;50.130;8.526;2022-07-23T11:37:11;100235.00;;;29.21;28.83
27685;BME280;46113;50.130;8.526;2022-07-23T11:39:38;100228.34;;;29.24;28.35
27685;BME280;46113;50.130;8.526;2022-07-23T11:42:06;100224.44;;;29.48;28.06
27685;BME280;46113;50.130;8.526;2022-07-23T11:44:36;100231.88;;;29.39;28.48
27685;BME280;46113;50.130;8.526;2022-07-23T11:47:08;100225.38;;;29.40;27.94
27685;BME280;46113;50.130;8.526;2022-07-23T11:49:35;100227.22;;;29.55;27.94
27685;BME280;46113;50.130;8.526;2022-07-23T11:52:07;100224.69;;;29.68;27.00
27685;BME280;46113;50.130;8.526;2022-07-23T11:54:36;100225.84;;;29.59;26.96
27685;BME280;46113;50.130;8.526;2022-07-23T11:57:06;100223.00;;;29.67;27.63
27685;BME280;46113;50.130;8.526;2022-07-23T11:59:33;100219.91;;;29.55;27.29
27685;BME280;46113;50.130;8.526;2022-07-23T12:02:04;100230.00;;;28.03;26.76
27685;BME280;46113;50.130;8.526;2022-07-23T12:04:45;100220.31;;;27.36;28.02
27685;BME280;46113;50.130;8.526;2022-07-23T12:09:57;100222.06;;;27.61;28.03
27685;BME280;46113;50.130;8.526;2022-07-23T12:15:56;100215.88;;;28.46;27.17
27685;BME280;46113;50.130;8.526;2022-07-23T12:18:25;100219.22;;;28.48;27.00
27685;BME280;46113;50.130;8.526;2022-07-23T12:20:55;100212.81;;;28.79;26.74
27685;BME280;46113;50.130;8.526;2022-07-23T12:23:37;100213.41;;;29.19;27.67
27685;BME280;46113;50.130;8.526;2022-07-23T12:26:04;100211.03;;;28.71;26.75
27685;BME280;46113;50.130;8.526;2022-07-23T12:28:33;100223.81;;;28.09;27.67
27685;BME280;46113;50.130;8.526;2022-07-23T12:31:04;100219.59;;;27.74;28.09
27685;BME280;46113;50.130;8.526;2022-07-23T12:33:39;100211.34;;;27.91;28.01
27685;BME280;46113;50.130;8.526;2022-07-23T12:36:08;100218.94;;;28.27;27.83
27685;BME280;46113;50.130;8.526;2022-07-23T12:38:43;100216.28;;;28.73;27.07
27685;BME280;46113;50.130;8.526;2022-07-23T12:41:10;100213.91;;;28.16;26.86
27685;BME280;46113;50.130;8.526;2022-07-23T12:43:39;100218.81;;;28.59;26.73
27685;BME280;46113;50.130;8.526;2022-07-23T12:46:15;100212.19;;;27.92;28.18
27685;BME280;46113;50.130;8.526;2022-07-23T12:51:23;100218.94;;;28.27;27.58
27685;BME280;46113;50.130;8.526;2022-07-23T12:54:09;100223.13;;;28.07;27.74
27685;BME280;46113;50.130;8.526;2022-07-23T12:56:38;100212.84;;;27.70;28.39
27685;BME280;46113;50.130;8.526;2022-07-23T12:59:07;100213.81;;;27.54;28.26
27685;BME280;46113;50.130;8.526;2022-07-23T13:01:42;100216.56;;;28.24;27.98
27685;BME280;46113;50.130;8.526;2022-07-23T13:04:29;100205.84;;;28.23;28.25
27685;BME280;46113;50.130;8.526;2022-07-23T13:06:59;100212.94;;;28.09;28.23
27685;BME280;46113;50.130;8.526;2022-07-23T13:09:33;100216.09;;;28.36;27.56
27685;BME280;46113;50.130;8.526;2022-07-23T13:12:08;100214.63;;;29.02;27.05
27685;BME280;46113;50.130;8.526;2022-07-23T13:14:36;100217.97;;;29.34;26.05
27685;BME280;46113;50.130;8.526;2022-07-23T13:17:03;100219.81;;;29.64;26.74
27685;BME280;46113;50.130;8.526;2022-07-23T13:19:32;100218.28;;;29.09;26.27
27685;BME280;46113;50.130;8.526;2022-07-23T13:22:00;100222.13;;;28.08;27.46
27685;BME280;46113;50.130;8.526;2022-07-23T13:24:34;100224.94;;;28.61;27.06
27685;BME280;46113;50.130;8.526;2022-07-23T13:27:04;100215.94;;;29.21;26.43
27685;BME280;46113;50.130;8.526;2022-07-23T13:29:32;100213.34;;;29.65;25.72
27685;BME280;46113;50.130;8.526;2022-07-23T13:31:59;100217.09;;;30.07;26.33
27685;BME280;46113;50.130;8.526;2022-07-23T13:34:25;100219.59;;;28.68;26.92
27685;BME280;46113;50.130;8.526;2022-07-23T13:36:52;100223.31;;;28.28;26.86
27685;BME280;46113;50.130;8.526;2022-07-23T13:39:19;100222.44;;;28.51;26.71
27685;BME280;46113;50.130;8.526;2022-07-23T13:41:46;100225.38;;;28.80;26.58
27685;BME280;46113;50.130;8.526;2022-07-23T13:44:17;100211.44;;;28.98;26.05
27685;BME280;46113;50.130;8.526;2022-07-23T13:46:45;100212.34;;;28.37;26.94
27685;BME280;46113;50.130;8.526;2022-07-23T13:49:13;100216.75;;;28.76;26.67
27685;BME280;46113;50.130;8.526;2022-07-23T13:51:41;100209.25;;;28.63;26.34
27685;BME280;46113;50.130;8.526;2022-07-23T13:54:07;100215.53;;;28.02;26.95
27685;BME280;46113;50.130;8.526;2022-07-23T13:56:35;100208.97;;;28.58;26.65
27685;BME280;46113;50.130;8.526;2022-07-23T13:59:02;100211.50;;;28.75;26.57
27685;BME280;46113;50.130;8.526;2022-07-23T14:01:32;100211.28;;;27.44;27.37
27685;BME280;46113;50.130;8.526;2022-07-23T14:04:11;100207.13;;;28.12;27.23
27685;BME280;46113;50.130;8.526;2022-07-23T14:06:38;100205.03;;;28.22;26.45
27685;BME280;46113;50.130;8.526;2022-07-23T14:09:04;100211.72;;;28.50;26.59
27685;BME280;46113;50.130;8.526;2022-07-23T14:11:34;100207.41;;;28.94;25.94
27685;BME280;46113;50.130;8.526;2022-07-23T14:14:00;100207.00;;;28.82;26.32
27685;BME280;46113;50.130;8.526;2022-07-23T14:16:28;100206.28;;;28.50;25.95
27685;BME280;46113;50.130;8.526;2022-07-23T14:18:55;100211.28;;;27.76;27.18
27685;BME280;46113;50.130;8.526;2022-07-23T14:21:23;100212.16;;;28.23;26.40
27685;BME280;46113;50.130;8.526;2022-07-23T14:23:49;100212.50;;;28.20;25.72
27685;BME280;46113;50.130;8.526;2022-07-23T14:26:19;100213.84;;;28.24;25.51
27685;BME280;46113;50.130;8.526;2022-07-23T14:28:45;100206.84;;;28.84;26.03
27685;BME280;46113;50.130;8.526;2022-07-23T14:31:14;100213.53;;;28.19;26.37
27685;BME280;46113;50.130;8.526;2022-07-23T14:33:47;100207.56;;;28.77;25.70
27685;BME280;46113;50.130;8.526;2022-07-23T14:36:15;100213.88;;;29.08;25.28
27685;BME280;46113;50.130;8.526;2022-07-23T14:38:41;100198.19;;;28.80;25.14
27685;BME280;46113;50.130;8.526;2022-07-23T14:41:08;100213.72;;;28.18;25.60
27685;BME280;46113;50.130;8.526;2022-07-23T14:43:36;100214.91;;;28.38;25.23
27685;BME280;46113;50.130;8.526;2022-07-23T14:46:04;100212.53;;;28.74;24.61
27685;BME280;46113;50.130;8.526;2022-07-23T14:48:31;100206.91;;;29.20;24.48
27685;BME280;46113;50.130;8.526;2022-07-23T14:50:58;100206.19;;;29.27;24.29
27685;BME280;46113;50.130;8.526;2022-07-23T14:53:24;100206.38;;;29.10;24.74
27685;BME280;46113;50.130;8.526;2022-07-23T14:55:51;100215.53;;;28.64;25.01
27685;BME280;46113;50.130;8.526;2022-07-23T14:58:17;100214.53;;;28.41;24.72
27685;BME280;46113;50.130;8.526;2022-07-23T15:00:44;100206.44;;;28.87;24.00
27685;BME280;46113;50.130;8.526;2022-07-23T15:03:11;100207.84;;;29.28;23.36
27685;BME280;46113;50.130;8.526;2022-07-23T15:05:38;100202.91;;;29.53;23.35
27685;BME280;46113;50.130;8.526;2022-07-23T15:08:05;100190.13;;;29.91;22.91
27685;BME280;46113;50.130;8.526;2022-07-23T15:10:35;100194.72;;;29.90;23.07
27685;BME280;46113;50.130;8.526;2022-07-23T15:13:03;100195.38;;;29.03;23.75
27685;BME280;46113;50.130;8.526;2022-07-23T15:15:30;100201.69;;;28.50;24.65
27685;BME280;46113;50.130;8.526;2022-07-23T15:17:57;100202.97;;;28.24;24.98
27685;BME280;46113;50.130;8.526;2022-07-23T15:20:23;100194.59;;;29.25;23.81
27685;BME280;46113;50.130;8.526;2022-07-23T15:23:01;100197.13;;;29.41;23.80
27685;BME280;46113;50.130;8.526;2022-07-23T15:25:28;100198.63;;;30.03;22.70
27685;BME280;46113;50.130;8.526;2022-07-23T15:27:57;100198.59;;;29.81;22.86
27685;BME280;46113;50.130;8.526;2022-07-23T15:30:25;100195.75;;;29.67;23.08
27685;BME280;46113;50.130;8.526;2022-07-23T15:32:53;100196.34;;;29.84;22.65
27685;BME280;46113;50.130;8.526;2022-07-23T15:35:20;100193.56;;;29.41;23.16
27685;BME280;46113;50.130;8.526;2022-07-23T15:37:46;100198.53;;;29.37;22.74
27685;BME280;46113;50.130;8.526;2022-07-23T15:40:13;100204.25;;;28.52;23.55
27685;BME280;46113;50.130;8.526;2022-07-23T15:42:40;100193.31;;;28.75;23.44
27685;BME280;46113;50.130;8.526;2022-07-23T15:45:07;100191.53;;;29.13;23.45
27685;BME280;46113;50.130;8.526;2022-07-23T15:47:36;100183.53;;;29.26;22.79
27685;BME280;46113;50.130;8.526;2022-07-23T15:50:06;100192.59;;;28.43;24.25
27685;BME280;46113;50.130;8.526;2022-07-23T15:52:33;100185.22;;;28.67;23.60
27685;BME280;46113;50.130;8.526;2022-07-23T15:55:00;100195.81;;;28.62;23.89
27685;BME280;46113;50.130;8.526;2022-07-23T15:57:27;100188.13;;;28.96;24.40
27685;BME280;46113;50.130;8.526;2022-07-23T15:59:58;100193.22;;;28.99;23.76
27685;BME280;46113;50.130;8.526;2022-07-23T16:02:25;100181.06;;;29.46;23.65
27685;BME280;46113;50.130;8.526;2022-07-23T16:04:53;100179.69;;;29.20;23.86
27685;BME280;46113;50.130;8.526;2022-07-23T16:07:20;100179.13;;;29.10;23.81
27685;BME280;46113;50.130;8.526;2022-07-23T16:09:47;100178.47;;;29.23;23.69
27685;BME280;46113;50.130;8.526;2022-07-23T16:12:14;100173.09;;;29.30;23.67
27685;BME280;46113;50.130;8.526;2022-07-23T16:14:41;100182.88;;;28.79;24.13
27685;BME280;46113;50.130;8.526;2022-07-23T16:17:11;100183.16;;;28.84;23.35
27685;BME280;46113;50.130;8.526;2022-07-23T16:19:38;100188.22;;;28.72;23.52
27685;BME280;46113;50.130;8.526;2022-07-23T16:22:05;100192.28;;;27.99;24.39
27685;BME280;46113;50.130;8.526;2022-07-23T16:24:34;100186.56;;;28.56;23.64
27685;BME280;46113;50.130;8.526;2022-07-23T16:27:00;100190.50;;;28.84;23.17
27685;BME280;46113;50.130;8.526;2022-07-23T16:29:31;100194.06;;;28.99;23.91
27685;BME280;46113;50.130;8.526;2022-07-23T16:31:58;100192.84;;;28.87;23.57
27685;BME280;46113;50.130;8.526;2022-07-23T16:34:27;100194.88;;;29.00;23.11
27685;BME280;46113;50.130;8.526;2022-07-23T16:36:54;100188.44;;;28.86;22.87
27685;BME280;46113;50.130;8.526;2022-07-23T16:39:20;100192.09;;;29.08;22.59
27685;BME280;46113;50.130;8.526;2022-07-23T16:41:47;100185.44;;;28.80;22.83
27685;BME280;46113;50.130;8.526;2022-07-23T16:44:14;100184.94;;;28.92;23.21
27685;BME280;46113;50.130;8.526;2022-07-23T16:46:41;100195.53;;;28.57;22.77
27685;BME280;46113;50.130;8.526;2022-07-23T16:49:08;100193.25;;;28.45;22.99
27685;BME280;46113;50.130;8.526;2022-07-23T16:51:35;100193.56;;;28.96;22.86
27685;BME280;46113;50.130;8.526;2022-07-23T16:54:02;100191.53;;;28.98;23.04
27685;BME280;46113;50.130;8.526;2022-07-23T16:56:29;100204.19;;;28.90;22.54
27685;BME280;46113;50.130;8.526;2022-07-23T16:59:02;100195.69;;;29.09;22.11
27685;BME280;46113;50.130;8.526;2022-07-23T17:01:30;100204.09;;;28.99;22.38
27685;BME280;46113;50.130;8.526;2022-07-23T17:03:57;100198.25;;;28.57;21.81
27685;BME280;46113;50.130;8.526;2022-07-23T17:06:23;100199.91;;;28.43;22.33
27685;BME280;46113;50.130;8.526;2022-07-23T17:08:50;100206.00;;;28.06;22.89
27685;BME280;46113;50.130;8.526;2022-07-23T17:11:16;100210.13;;;27.70;23.54
27685;BME280;46113;50.130;8.526;2022-07-23T17:13:43;100212.25;;;27.83;24.17
27685;BME280;46113;50.130;8.526;2022-07-23T17:16:09;100208.28;;;27.94;24.10
27685;BME280;46113;50.130;8.526;2022-07-23T17:18:37;100210.88;;;27.56;24.41
27685;BME280;46113;50.130;8.526;2022-07-23T17:21:03;100208.31;;;27.86;24.10
27685;BME280;46113;50.130;8.526;2022-07-23T17:23:32;100215.34;;;28.27;23.79
27685;BME280;46113;50.130;8.526;2022-07-23T17:25:58;100210.06;;;27.55;24.96
27685;BME280;46113;50.130;8.526;2022-07-23T17:28:26;100215.72;;;28.00;24.90
27685;BME280;46113;50.130;8.526;2022-07-23T17:30:53;100214.81;;;28.08;24.44
27685;BME280;46113;50.130;8.526;2022-07-23T17:33:20;100218.94;;;28.27;24.72
27685;BME280;46113;50.130;8.526;2022-07-23T17:35:47;100220.97;;;28.25;24.40
27685;BME280;46113;50.130;8.526;2022-07-23T17:38:18;100229.59;;;28.29;24.76
27685;BME280;46113;50.130;8.526;2022-07-23T17:40:45;100219.41;;;28.31;24.59
27685;BME280;46113;50.130;8.526;2022-07-23T17:43:12;100218.91;;;28.04;24.62
27685;BME280;46113;50.130;8.526;2022-07-23T17:45:39;100226.97;;;28.21;24.87
27685;BME280;46113;50.130;8.526;2022-07-23T17:48:08;100226.47;;;28.40;24.54
27685;BME280;46113;50.130;8.526;2022-07-23T17:50:35;100223.66;;;28.10;24.45
27685;BME280;46113;50.130;8.526;2022-07-23T17:53:02;100224.59;;;28.18;24.41
27685;BME280;46113;50.130;8.526;2022-07-23T17:55:32;100227.28;;;28.03;24.62
27685;BME280;46113;50.130;8.526;2022-07-23T17:57:59;100225.22;;;28.05;24.88